Time;durP1;ratioP1;P1;durP2;ratioP2;P2;SDS_P1;SDS_P2;PMS_P1;PMS_P2;Temp;Humidity;BMP_temperature;BMP_pressure;BME280_temperature;BME280_humidity;BME280_pressure;Samples;Min_cycle;Max_cycle;Signal;HPM_P1;HPM_P2
2021/01/21 00:00:54;;;;;;;6.68;2.10;;;;;;;9.92;84.29;98650.97;10457824;28;20087;-72
2021/01/21 00:05:55;;;;;;;2.85;1.40;;;;;;;9.88;84.88;98610.03;10471306;28;20382;-72
2021/01/21 00:10:56;;;;;;;4.60;2.13;;;;;;;9.92;84.80;98581.75;10487006;28;20492;-72
2021/01/21 00:15:57;;;;;;;4.38;2.13;;;;;;;9.83;84.76;98576.22;10511580;28;20059;-72
2021/01/21 00:20:59;;;;;;;6.60;2.00;;;;;;;9.81;85.33;98579.91;10488163;28;20439;-72
2021/01/21 00:26:01;;;;;;;4.25;2.00;;;;;;;9.83;85.14;98567.47;10462472;28;20059;-72
2021/01/21 00:31:02;;;;;;;5.15;2.20;;;;;;;9.75;85.13;98536.50;10497368;28;20071;-72
2021/01/21 00:36:03;;;;;;;6.63;2.15;;;;;;;9.67;85.71;98530.97;10497772;28;20040;-72
2021/01/21 00:41:04;;;;;;;3.33;1.88;;;;;;;9.96;84.67;98551.66;10497272;28;20040;-72
2021/01/21 00:46:05;;;;;;;5.53;2.10;;;;;;;9.87;84.40;98521.59;10495003;28;20052;-72
2021/01/21 00:51:07;;;;;;;4.35;1.80;;;;;;;9.80;85.19;98523.00;10495247;28;20071;-72
2021/01/21 00:56:08;;;;;;;6.85;2.25;;;;;;;9.79;84.91;98506.38;10492356;28;20040;-72
2021/01/21 01:01:09;;;;;;;4.20;1.70;;;;;;;9.92;83.96;98482.63;10498316;28;20044;-72
2021/01/21 01:06:11;;;;;;;7.60;2.22;;;;;;;9.87;84.15;98469.81;10457943;28;20139;-72
2021/01/21 01:11:13;;;;;;;3.97;1.95;;;;;;;9.77;84.59;98442.56;10492777;28;20465;-72
2021/01/21 01:16:14;;;;;;;4.97;1.92;;;;;;;9.89;83.48;98438.13;10512365;28;20155;-72
2021/01/21 01:21:24;;;;;;;2.58;1.60;;;;;;;9.73;83.82;98416.59;10496389;28;20131;-72
2021/01/21 01:26:26;;;;;;;2.60;1.50;;;;;;;9.82;83.66;98429.03;10484533;28;20163;-72
2021/01/21 01:31:36;;;;;;;5.90;2.13;;;;;;;9.86;83.29;98433.13;10492298;28;20750;-72
2021/01/21 01:36:39;;;;;;;2.80;1.48;;;;;;;10.00;81.96;98417.13;10495728;28;20451;-72
2021/01/21 01:41:41;;;;;;;4.18;1.90;;;;;;;10.32;80.03;98404.13;10495238;28;20503;-72
2021/01/21 01:46:42;;;;;;;3.78;1.65;;;;;;;10.18;80.03;98357.84;10491433;28;20131;-72
2021/01/21 01:51:49;;;;;;;3.75;1.50;;;;;;;10.11;79.97;98340.00;10490618;28;20044;-72
2021/01/21 01:56:52;;;;;;;3.35;1.50;;;;;;;10.17;80.12;98334.25;10494004;28;20538;-72
2021/01/21 02:02:03;;;;;;;3.53;1.80;;;;;;;10.56;78.04;98348.69;10463502;28;20040;-72
2021/01/21 02:07:09;;;;;;;5.32;1.70;;;;;;;10.40;78.38;98333.31;10502524;28;20510;-72
2021/01/21 02:12:52;;;;;;;6.30;1.60;;;;;;;10.47;78.13;98320.47;10529574;28;20409;-72
2021/01/21 02:18:26;;;;;;;4.68;1.55;;;;;;;10.41;78.81;98294.66;10545059;28;20421;-72
2021/01/21 02:24:05;;;;;;;5.68;1.60;;;;;;;10.36;79.00;98281.88;10494947;28;20052;-72
2021/01/21 02:29:29;;;;;;;3.05;1.65;;;;;;;10.44;79.49;98281.25;10479447;28;20465;-72
2021/01/21 02:34:49;;;;;;;4.13;1.60;;;;;;;10.75;77.80;98283.06;10503028;28;20517;-72
2021/01/21 02:40:00;;;;;;;3.75;2.00;;;;;;;10.76;78.51;98326.88;10501700;28;20155;-72
2021/01/21 02:45:08;;;;;;;5.72;3.15;;;;;;;10.51;79.88;98274.53;10498652;28;20128;-72
2021/01/21 02:50:16;;;;;;;5.63;3.75;;;;;;;10.67;79.77;98288.13;10495940;28;20403;-72
2021/01/21 02:55:24;;;;;;;4.25;1.95;;;;;;;10.76;79.52;98262.84;10492002;28;20467;-72
2021/01/21 03:00:38;;;;;;;4.80;2.17;;;;;;;10.70;79.97;98256.28;10496283;28;20044;-72
2021/01/21 03:05:42;;;;;;;6.25;2.20;;;;;;;10.92;79.73;98290.41;10459106;28;20110;-72
2021/01/21 03:10:43;;;;;;;4.93;2.03;;;;;;;10.81;79.72;98256.22;10485635;28;20047;-72
2021/01/21 03:15:47;;;;;;;6.88;3.10;;;;;;;10.75;81.08;98250.63;10497115;28;20101;-72
2021/01/21 03:20:51;;;;;;;3.50;1.70;;;;;;;10.85;80.25;98268.19;10497788;28;20094;-72
2021/01/21 03:26:02;;;;;;;3.83;1.67;;;;;;;10.89;79.71;98229.22;10482730;28;20140;-72
2021/01/21 03:31:05;;;;;;;4.85;1.35;;;;;;;10.97;78.78;98232.91;10498838;28;20076;-72
2021/01/21 03:36:07;;;;;;;2.38;1.33;;;;;;;10.87;80.13;98244.34;10498643;28;20492;-72
2021/01/21 03:41:08;;;;;;;3.80;1.67;;;;;;;11.02;78.73;98236.00;10497790;28;20114;-72
2021/01/21 03:46:13;;;;;;;4.47;1.60;;;;;;;11.00;78.57;98216.84;10495929;28;20060;-72
2021/01/21 03:51:14;;;;;;;4.03;1.52;;;;;;;11.06;78.94;98231.28;10482851;28;20053;-72
2021/01/21 03:56:27;;;;;;;2.65;1.23;;;;;;;10.96;79.86;98233.84;10497819;28;20110;-72
2021/01/21 04:01:29;;;;;;;4.43;1.30;;;;;;;10.94;80.14;98212.09;10497537;28;20485;-72
2021/01/21 04:06:32;;;;;;;1.63;1.02;;;;;;;10.74;81.35;98212.91;10497504;28;20515;-72
2021/01/21 04:11:40;;;;;;;2.42;1.10;;;;;;;10.68;81.88;98234.50;10518278;28;20527;-72
2021/01/21 04:16:47;;;;;;;2.80;1.23;;;;;;;10.58;83.65;98238.84;10536552;28;20040;-72
2021/01/21 04:21:51;;;;;;;2.83;1.13;;;;;;;10.52;85.06;98240.19;10497670;28;20458;-72
2021/01/21 04:26:56;;;;;;;2.28;1.38;;;;;;;10.56;86.03;98219.69;10495449;28;20454;-72
2021/01/21 04:32:10;;;;;;;2.97;1.00;;;;;;;10.23;88.66;98223.28;10496680;28;20067;-72
2021/01/21 04:37:11;;;;;;;3.72;1.52;;;;;;;10.24;90.63;98249.47;10496831;28;20044;-72
2021/01/21 04:42:31;;;;;;;1.70;1.10;;;;;;;10.40;90.71;98264.03;10495285;28;20107;-72
2021/01/21 04:47:38;;;;;;;3.60;1.38;;;;;;;10.45;90.95;98275.03;10483715;28;20064;-72
2021/01/21 04:53:11;;;;;;;1.88;0.90;;;;;;;10.58;90.63;98279.19;10482589;28;20065;-72
2021/01/21 04:58:35;;;;;;;2.50;1.23;;;;;;;10.47;91.04;98259.94;10495158;28;20079;-72
2021/01/21 05:03:38;;;;;;;2.08;1.30;;;;;;;10.41;92.24;98245.47;10496265;28;20286;-72
2021/01/21 05:08:58;;;;;;;2.55;1.00;;;;;;;10.42;93.61;98270.00;10493917;28;20420;-72
2021/01/21 05:14:05;;;;;;;2.15;1.20;;;;;;;10.21;97.34;98244.44;10496916;28;20040;-72
2021/01/21 05:19:38;;;;;;;3.83;1.40;;;;;;;9.85;100.00;98476.16;10495041;28;20486;-71
2021/01/21 05:25:02;;;;;;;3.90;0.90;;;;;;;6.28;100.00;98343.66;10465669;28;20044;-71
2021/01/21 05:30:14;;;;;;;4.90;1.10;;;;;;;5.81;100.00;98354.41;10495613;28;20052;-71
2021/01/21 05:35:16;;;;;;;4.68;1.20;;;;;;;5.75;100.00;98389.59;10497590;28;20527;-71
2021/01/21 05:40:28;;;;;;;4.95;1.38;;;;;;;5.67;100.00;98410.13;10502629;28;20079;-71
2021/01/21 05:45:59;;;;;;;4.70;1.50;;;;;;;5.42;100.00;98420.34;10493225;28;20393;-72
2021/01/21 05:51:02;;;;;;;3.50;1.20;;;;;;;5.30;100.00;98437.53;10499493;28;20049;-72
2021/01/21 05:56:07;;;;;;;6.65;1.23;;;;;;;5.22;100.00;98468.47;10492023;28;20091;-72
2021/01/21 06:01:28;;;;;;;2.72;1.35;;;;;;;5.20;100.00;98493.78;10479761;28;20143;-72
2021/01/21 06:06:38;;;;;;;2.70;1.00;;;;;;;5.19;100.00;98505.19;10502694;28;20483;-72
2021/01/21 06:11:42;;;;;;;3.80;1.20;;;;;;;5.07;100.00;98509.31;10525187;28;20040;-72
2021/01/21 06:16:45;;;;;;;3.30;1.23;;;;;;;5.12;100.00;98542.97;10545466;28;20032;-72
2021/01/21 06:21:57;;;;;;;3.33;1.55;;;;;;;5.12;100.00;98542.97;10545530;28;20036;-72
2021/01/21 06:27:15;;;;;;;5.60;1.80;;;;;;;5.17;100.00;98554.88;10509664;28;20048;-71
2021/01/21 06:32:21;;;;;;;4.30;1.40;;;;;;;5.12;100.00;98561.25;10502556;28;20033;-71
2021/01/21 06:37:24;;;;;;;6.22;1.60;;;;;;;5.26;100.00;98616.16;10500295;28;20498;-72
2021/01/21 06:42:32;;;;;;;7.68;1.88;;;;;;;5.18;100.00;98594.84;10472558;28;20037;-71
2021/01/21 06:47:34;;;;;;;5.95;1.80;;;;;;;5.18;100.00;98594.84;10468498;28;20056;-72
2021/01/21 06:52:37;;;;;;;5.72;1.83;;;;;;;5.27;100.00;98594.34;10479493;28;20037;-71
2021/01/21 06:57:38;;;;;;;7.97;2.10;;;;;;;5.15;100.00;98626.34;10489127;28;20040;-71
2021/01/21 07:02:40;;;;;;;6.72;2.17;;;;;;;5.25;100.00;98640.59;10487203;28;20044;-71
2021/01/21 07:07:55;;;;;;;9.13;1.40;;;;;;;5.58;100.00;98711.88;10498776;28;20486;-72
2021/01/21 07:13:03;;;;;;;7.90;2.72;;;;;;;5.69;100.00;98735.63;10502374;28;20048;-70
2021/01/21 07:18:06;;;;;;;7.30;2.13;;;;;;;5.70;100.00;98689.44;10470725;28;20040;-70
2021/01/21 07:23:07;;;;;;;7.22;4.18;;;;;;;5.57;100.00;98712.78;10481986;28;20480;-70
2021/01/21 07:28:09;;;;;;;5.03;2.05;;;;;;;5.77;100.00;98729.16;10469929;28;20067;-72
2021/01/21 07:33:29;;;;;;;4.90;2.03;;;;;;;5.59;100.00;98713.56;10500011;28;20076;-72
2021/01/21 07:38:48;;;;;;;6.60;3.03;;;;;;;5.63;100.00;98748.19;10473185;28;20041;-71
2021/01/21 07:43:56;;;;;;;5.03;1.70;;;;;;;5.69;100.00;98787.88;10464636;28;20059;-72
2021/01/21 07:49:22;;;;;;;7.65;3.10;;;;;;;5.57;100.00;98764.19;10469125;28;20048;-71
2021/01/21 07:54:24;;;;;;;6.93;3.35;;;;;;;5.66;100.00;98787.22;10489830;28;20520;-71
2021/01/21 07:59:26;;;;;;;7.45;3.47;;;;;;;5.49;100.00;98788.09;10456754;28;20700;-72
2021/01/21 08:04:27;;;;;;;5.30;1.90;;;;;;;5.24;100.00;98770.25;10478448;28;20041;-71
2021/01/21 08:09:29;;;;;;;5.75;2.40;;;;;;;5.01;100.00;98756.72;10498855;28;20049;-73
2021/01/21 08:14:33;;;;;;;9.48;5.88;;;;;;;5.06;100.00;98765.13;10501061;28;20054;-72
2021/01/21 08:19:38;;;;;;;7.37;3.33;;;;;;;5.17;100.00;98788.94;10496731;28;20040;-71
2021/01/21 08:25:00;;;;;;;7.47;3.13;;;;;;;5.11;100.00;98803.13;10497361;28;20154;-71
2021/01/21 08:30:26;;;;;;;5.22;1.67;;;;;;;5.44;100.00;98823.22;10496510;28;20045;-71
2021/01/21 08:35:29;;;;;;;4.38;1.83;;;;;;;7.24;100.00;98949.28;10485001;28;20049;-70
2021/01/21 08:40:32;;;;;;;4.53;1.92;;;;;;;8.02;100.00;98972.72;10497092;28;20055;-71
2021/01/21 08:45:34;;;;;;;5.03;2.22;;;;;;;8.35;99.40;98955.81;10495919;28;20040;-71
2021/01/21 08:50:39;;;;;;;7.82;2.00;;;;;;;9.01;91.29;98933.28;10496234;28;20048;-71
2021/01/21 08:55:43;;;;;;;4.28;1.80;;;;;;;9.63;85.17;98926.50;10475401;28;20041;-71
2021/01/21 09:01:09;;;;;;;6.32;2.08;;;;;;;9.62;80.86;98888.03;10479604;28;20051;-71
2021/01/21 09:06:13;;;;;;;7.38;2.15;;;;;;;9.38;79.86;98834.44;10495723;28;20055;-71
2021/01/21 09:11:27;;;;;;;3.95;1.92;;;;;;;10.84;77.93;98943.50;10503862;28;20094;-70
2021/01/21 09:16:51;;;;;;;9.55;2.40;;;;;;;10.70;75.65;98885.69;10503566;28;20123;-70
2021/01/21 09:22:00;;;;;;;5.72;2.17;;;;;;;10.93;73.54;98862.94;10488867;28;20047;-72
2021/01/21 09:27:16;;;;;;;9.20;2.20;;;;;;;10.51;73.29;98825.63;10465077;28;20045;-71
2021/01/21 09:32:19;;;;;;;6.53;2.45;;;;;;;10.83;74.44;98883.00;10466965;28;20453;-72
2021/01/21 09:37:21;;;;;;;6.00;2.60;;;;;;;10.38;74.00;98816.91;10482632;28;20041;-71
2021/01/21 09:42:22;;;;;;;7.63;2.30;;;;;;;11.71;71.99;98921.22;10504195;28;20037;-72
2021/01/21 09:47:24;;;;;;;7.18;2.78;;;;;;;11.68;70.43;98880.09;10504122;28;20444;-72
2021/01/21 09:52:26;;;;;;;6.05;2.25;;;;;;;12.16;69.62;98915.09;10501552;28;20094;-72
2021/01/21 09:57:27;;;;;;;8.80;2.20;;;;;;;12.42;70.26;98954.47;10502528;28;20052;-70
2021/01/21 10:02:28;;;;;;;7.05;1.95;;;;;;;12.52;66.33;98866.47;10500761;28;20041;-71
2021/01/21 10:07:29;;;;;;;6.30;1.83;;;;;;;12.11;66.97;98840.69;10502303;28;20048;-70
2021/01/21 10:12:31;;;;;;;5.45;1.70;;;;;;;11.53;67.93;98804.78;10529947;28;20032;-70
2021/01/21 10:17:32;;;;;;;8.23;2.30;;;;;;;13.72;65.23;98945.66;10508190;28;20037;-70
2021/01/21 10:22:34;;;;;;;9.25;2.33;;;;;;;11.75;68.61;98835.63;10500453;28;20044;-71
2021/01/21 10:27:35;;;;;;;12.60;3.08;;;;;;;13.04;67.15;98933.63;10478160;28;20041;-71
2021/01/21 10:32:37;;;;;;;4.72;1.75;;;;;;;13.08;66.18;98905.13;10501958;28;20036;-71
2021/01/21 10:37:38;;;;;;;6.07;2.22;;;;;;;12.37;66.98;98845.72;10500580;28;20128;-71
2021/01/21 10:42:39;;;;;;;7.35;1.65;;;;;;;11.75;68.38;98827.72;10500701;28;20500;-71
2021/01/21 10:47:41;;;;;;;6.60;2.08;;;;;;;10.56;70.21;98777.88;10501522;28;20491;-71
2021/01/21 10:52:42;;;;;;;6.97;2.08;;;;;;;12.96;68.12;98959.84;10500917;28;20115;-70
2021/01/21 10:57:43;;;;;;;6.75;2.08;;;;;;;10.53;69.97;98778.13;10494690;28;20040;-71
2021/01/21 11:02:44;;;;;;;4.88;1.83;;;;;;;11.14;70.07;98808.63;10480740;28;20052;-72
2021/01/21 11:07:45;;;;;;;6.43;3.00;;;;;;;8.67;77.29;98711.44;10492622;28;20198;-70
2021/01/21 11:12:48;;;;;;;5.28;2.15;;;;;;;8.93;79.57;98780.59;10531258;28;20036;-70
2021/01/21 11:39:40;;;;;;;5.35;1.80;;;;;;;9.14;79.41;98844.81;10567141;27;20388;-69
2021/01/21 11:44:41;;;;;;;7.05;1.90;;;;;;;9.02;79.30;98836.00;10566809;28;20044;-70
2021/01/21 11:49:43;;;;;;;6.28;1.95;;;;;;;8.77;79.69;98820.16;10566432;28;20048;-70
2021/01/21 11:54:44;;;;;;;5.93;2.03;;;;;;;8.78;80.63;98836.75;10567694;28;20093;-70
2021/01/21 11:59:45;;;;;;;6.95;1.80;;;;;;;9.05;81.73;98863.81;10566514;28;20457;-70
2021/01/21 12:04:46;;;;;;;7.32;2.10;;;;;;;8.46;82.88;98810.78;10567730;28;20106;-70
2021/01/21 12:09:47;;;;;;;5.80;2.08;;;;;;;8.41;82.43;98810.25;10565999;28;20516;-70
2021/01/21 12:14:49;;;;;;;5.78;2.13;;;;;;;9.46;81.61;98882.09;10567765;28;20044;-71
2021/01/21 12:19:50;;;;;;;6.22;2.40;;;;;;;8.72;82.32;98815.19;10565674;28;20051;-70
2021/01/21 12:24:51;;;;;;;6.38;1.90;;;;;;;8.88;82.30;98830.78;10566748;28;20040;-70
2021/01/21 12:29:52;;;;;;;8.13;2.30;;;;;;;8.98;82.53;98834.50;10563087;28;20055;-70
2021/01/21 12:34:53;;;;;;;5.38;2.33;;;;;;;8.73;81.24;98788.00;10565355;28;20039;-71
2021/01/21 12:39:54;;;;;;;6.03;1.83;;;;;;;9.70;78.71;98835.75;10542191;28;20051;-70
2021/01/21 12:44:55;;;;;;;5.65;1.90;;;;;;;9.05;77.95;98775.34;10537763;28;20036;-70
2021/01/21 12:49:56;;;;;;;5.68;1.85;;;;;;;8.79;79.10;98765.75;10536188;28;20650;-71
2021/01/21 12:54:59;;;;;;;6.70;1.80;;;;;;;9.04;79.21;98786.81;10537546;28;20056;-70
2021/01/21 13:00:00;;;;;;;3.50;1.60;;;;;;;9.09;78.60;98791.75;10516980;28;20055;-70
2021/01/21 13:05:03;;;;;;;6.57;1.83;;;;;;;8.83;79.15;98753.28;10535162;28;20063;-70
2021/01/21 13:10:06;;;;;;;9.88;2.25;;;;;;;8.66;80.47;98757.00;10534163;28;20052;-71
2021/01/21 13:15:08;;;;;;;5.75;1.70;;;;;;;8.42;80.69;98741.09;10533352;28;20039;-71
2021/01/21 13:20:09;;;;;;;6.13;2.10;;;;;;;8.36;81.01;98749.38;10537307;28;20101;-72
2021/01/21 13:25:11;;;;;;;6.22;1.60;;;;;;;8.57;81.78;98755.00;10535032;28;20032;-71
2021/01/21 13:30:13;;;;;;;3.88;1.40;;;;;;;8.42;80.28;98745.50;10527595;28;20044;-71
2021/01/21 13:35:14;;;;;;;5.30;1.55;;;;;;;8.76;81.84;98781.72;10534938;28;20135;-70
2021/01/21 13:40:15;;;;;;;5.30;1.92;;;;;;;9.32;78.55;98803.34;10521510;28;20368;-70
2021/01/21 13:45:16;;;;;;;10.32;2.08;;;;;;;9.21;77.79;98769.91;10533008;28;20032;-71
2021/01/21 13:50:18;;;;;;;6.45;1.58;;;;;;;8.94;77.49;98735.00;10533540;28;20044;-71
2021/01/21 13:55:19;;;;;;;4.15;1.13;;;;;;;8.69;79.71;98747.16;10534110;28;20121;-70
2021/01/21 14:00:21;;;;;;;4.63;1.60;;;;;;;8.52;79.38;98728.22;10495882;28;20048;-70
2021/01/21 14:05:22;;;;;;;6.00;1.38;;;;;;;8.26;80.10;98708.91;10473589;28;20059;-70
2021/01/21 14:10:23;;;;;;;3.95;1.15;;;;;;;8.38;81.48;98736.97;10490717;28;20044;-71
2021/01/21 14:15:25;;;;;;;4.72;1.60;;;;;;;8.25;81.07;98721.16;10490399;28;20655;-71
2021/01/21 14:20:26;;;;;;;5.20;1.77;;;;;;;8.19;81.39;98732.06;10491052;28;20369;-71
2021/01/21 14:25:27;;;;;;;6.55;1.52;;;;;;;8.17;82.65;98727.84;10491216;28;20044;-71
2021/01/21 14:30:28;;;;;;;3.20;1.20;;;;;;;8.22;82.06;98771.19;10491929;28;20044;-71
2021/01/21 14:35:29;;;;;;;4.60;1.90;;;;;;;8.16;79.99;98736.66;10531144;28;20484;-70
2021/01/21 14:40:30;;;;;;;4.55;1.25;;;;;;;8.07;80.74;98732.00;10532466;28;20093;-71
2021/01/21 14:45:32;;;;;;;4.60;1.70;;;;;;;8.17;80.18;98744.44;10532137;28;20048;-71
2021/01/21 14:50:33;;;;;;;4.13;1.50;;;;;;;8.09;80.65;98733.59;10494453;28;20051;-71
2021/01/21 14:55:34;;;;;;;3.92;1.50;;;;;;;8.03;81.33;98743.63;10490253;28;20609;-71
2021/01/21 15:00:37;;;;;;;5.50;1.92;;;;;;;7.80;81.67;98730.19;10527939;28;20055;-71
2021/01/21 15:05:38;;;;;;;4.72;1.60;;;;;;;7.87;81.69;98728.00;10530158;28;20052;-71
2021/01/21 15:10:39;;;;;;;5.70;1.55;;;;;;;7.72;81.42;98714.09;10531544;28;20044;-70
2021/01/21 15:15:40;;;;;;;6.60;2.13;;;;;;;7.69;82.55;98724.78;10530212;28;20052;-71
2021/01/21 15:20:46;;;;;;;4.85;1.30;;;;;;;7.65;82.90;98725.06;10500519;28;20492;-71
2021/01/21 15:25:47;;;;;;;3.38;1.42;;;;;;;7.60;83.10;98718.34;10491138;28;20055;-70
2021/01/21 15:30:48;;;;;;;4.60;1.88;;;;;;;7.52;83.88;98717.13;10493147;28;20407;-71
2021/01/21 15:35:49;;;;;;;6.68;2.13;;;;;;;7.52;84.33;98717.13;10525512;28;20135;-72
2021/01/21 15:40:53;;;;;;;5.97;1.70;;;;;;;7.49;84.31;98701.59;10527385;28;20048;-69
2021/01/21 15:45:56;;;;;;;7.78;4.65;;;;;;;7.52;84.54;98701.41;10530595;28;20052;-71
2021/01/21 15:50:57;;;;;;;5.05;1.70;;;;;;;7.53;84.53;98700.47;10490248;28;20667;-71
2021/01/21 15:55:59;;;;;;;7.75;4.60;;;;;;;7.56;84.57;98692.41;10489541;28;20387;-72
2021/01/21 16:01:00;;;;;;;5.78;1.70;;;;;;;7.47;84.68;98683.34;10489347;28;20048;-71
2021/01/21 16:06:01;;;;;;;7.70;1.70;;;;;;;7.49;85.63;98691.97;10498045;28;20043;-70
2021/01/21 16:11:02;;;;;;;6.25;2.20;;;;;;;7.40;86.76;98676.81;10530036;28;20503;-70
2021/01/21 16:16:04;;;;;;;8.73;2.22;;;;;;;7.38;87.73;98686.53;10529317;28;20803;-70
2021/01/21 16:21:05;;;;;;;4.90;2.40;;;;;;;7.28;89.17;98680.16;10495862;28;20041;-71
2021/01/21 16:26:12;;;;;;;6.70;1.88;;;;;;;7.20;89.97;98678.03;10495702;28;20040;-70
2021/01/21 16:31:13;;;;;;;8.68;2.25;;;;;;;7.32;90.33;98684.31;10496975;28;20040;-70
2021/01/21 16:36:14;;;;;;;7.72;2.03;;;;;;;7.22;91.02;98691.03;10494743;28;20445;-70
2021/01/21 16:41:15;;;;;;;7.45;2.53;;;;;;;7.23;91.44;98683.09;10495051;28;20049;-71
2021/01/21 16:46:16;;;;;;;7.53;2.40;;;;;;;7.36;90.83;98692.81;10478261;28;20048;-71
2021/01/21 16:51:18;;;;;;;9.38;2.80;;;;;;;7.29;90.60;98673.16;10494191;28;20047;-71
2021/01/21 16:56:19;;;;;;;6.28;2.58;;;;;;;7.26;91.84;98663.72;10492044;28;20056;-70
2021/01/21 17:01:20;;;;;;;9.30;3.42;;;;;;;7.32;92.61;98665.97;10494303;28;20437;-71
2021/01/21 17:06:21;;;;;;;13.38;4.78;;;;;;;7.30;93.93;98659.97;10495521;28;20472;-71
2021/01/21 17:11:26;;;;;;;15.73;5.28;;;;;;;7.39;94.60;98676.91;10494753;28;20041;-71
2021/01/21 17:16:28;;;;;;;13.43;3.78;;;;;;;7.32;95.42;98663.34;10493456;28;20101;-71
2021/01/21 17:21:29;;;;;;;13.48;4.38;;;;;;;7.26;96.76;98640.16;10494434;28;20070;-71
2021/01/21 17:26:31;;;;;;;10.95;3.65;;;;;;;7.26;95.90;98641.94;10510020;28;20040;-70
2021/01/21 17:31:32;;;;;;;7.47;3.30;;;;;;;7.28;95.16;98633.03;10517216;28;20059;-70
2021/01/21 17:36:33;;;;;;;7.32;2.53;;;;;;;7.34;94.21;98642.31;10529741;28;20097;-71
2021/01/21 17:41:35;;;;;;;7.40;2.25;;;;;;;7.29;94.95;98620.78;10516320;28;20040;-71
2021/01/21 17:46:36;;;;;;;9.70;2.50;;;;;;;7.20;94.57;98588.16;10505318;28;20036;-73
2021/01/21 17:51:38;;;;;;;7.43;2.42;;;;;;;7.27;95.76;98597.31;10497383;28;20075;-71
2021/01/21 17:56:39;;;;;;;8.10;2.40;;;;;;;7.14;99.07;98578.91;10520147;28;20048;-71
2021/01/21 18:01:40;;;;;;;6.97;2.20;;;;;;;6.73;100.00;98536.13;10497943;28;20059;-71
2021/01/21 18:06:42;;;;;;;10.73;2.60;;;;;;;6.35;100.00;98492.25;10497282;28;20070;-71
2021/01/21 18:11:43;;;;;;;7.15;2.30;;;;;;;6.14;100.00;98469.16;10514695;28;20035;-72
2021/01/21 18:16:44;;;;;;;9.45;3.05;;;;;;;6.07;100.00;98453.03;10527834;28;20055;-71
2021/01/21 18:21:46;;;;;;;11.15;2.67;;;;;;;6.03;100.00;98434.06;10518310;28;20051;-71
2021/01/21 18:26:47;;;;;;;12.80;3.00;;;;;;;5.94;100.00;98412.88;10538011;28;20036;-71
2021/01/21 18:31:48;;;;;;;11.88;3.60;;;;;;;5.94;100.00;98412.88;10537409;28;20040;-71
2021/01/21 18:36:49;;;;;;;13.27;3.38;;;;;;;5.75;100.00;98355.66;10526105;28;20057;-71
2021/01/21 18:41:50;;;;;;;10.25;3.22;;;;;;;5.73;100.00;98332.22;10524715;28;20040;-71
2021/01/21 18:46:53;;;;;;;10.88;2.95;;;;;;;5.75;100.00;98302.56;10507885;28;20044;-71
2021/01/21 18:51:54;;;;;;;9.60;2.35;;;;;;;5.83;100.00;98305.53;10527465;28;20046;-71
2021/01/21 18:56:55;;;;;;;10.15;3.35;;;;;;;5.77;100.00;98277.19;10539487;28;20477;-71
2021/01/21 19:01:58;;;;;;;6.28;2.28;;;;;;;5.71;100.00;98257.47;10539269;28;20119;-72
2021/01/21 19:06:59;;;;;;;12.80;3.22;;;;;;;5.83;100.00;98271.56;10536787;28;20513;-71
2021/01/21 19:12:01;;;;;;;9.48;3.30;;;;;;;5.77;100.00;98232.78;10527405;28;20090;-71
2021/01/21 19:17:04;;;;;;;6.50;3.20;;;;;;;5.77;100.00;98235.38;10532979;28;20054;-71
2021/01/21 19:22:05;;;;;;;10.93;3.85;;;;;;;5.76;100.00;98226.69;10533251;28;20089;-72
2021/01/21 19:27:06;;;;;;;12.13;3.00;;;;;;;5.82;100.00;98225.47;10533139;28;20055;-72
2021/01/21 19:32:12;;;;;;;7.70;2.88;;;;;;;5.86;100.00;98195.63;10535568;28;20045;-71
2021/01/21 19:37:13;;;;;;;6.85;2.60;;;;;;;5.78;100.00;98179.56;10539196;28;20052;-71
2021/01/21 19:42:15;;;;;;;11.82;3.45;;;;;;;5.82;100.00;98166.22;10537881;28;20051;-71
2021/01/21 19:47:16;;;;;;;9.63;3.88;;;;;;;5.90;100.00;98160.53;10523661;28;20507;-71
2021/01/21 19:52:17;;;;;;;9.57;2.80;;;;;;;5.94;100.00;98156.81;10525723;28;20040;-71
2021/01/21 19:57:18;;;;;;;9.82;3.58;;;;;;;6.00;100.00;98153.78;10513063;28;20143;-71
2021/01/21 20:02:19;;;;;;;8.60;2.78;;;;;;;6.12;100.00;98142.50;10543675;28;20043;-71
2021/01/21 20:07:21;;;;;;;5.93;2.42;;;;;;;6.29;100.00;98130.94;10544675;28;20048;-71
2021/01/21 20:12:22;;;;;;;11.05;2.50;;;;;;;6.40;100.00;98133.69;10546112;28;20562;-71
2021/01/21 20:17:23;;;;;;;7.25;2.70;;;;;;;6.39;100.00;98113.72;10546346;28;20040;-71
2021/01/21 20:22:25;;;;;;;4.47;2.40;;;;;;;6.41;100.00;98091.75;10527003;28;20400;-71
2021/01/21 20:27:26;;;;;;;4.70;1.90;;;;;;;6.72;100.00;98100.13;10514912;28;20399;-71
2021/01/21 20:32:28;;;;;;;5.95;2.33;;;;;;;6.84;100.00;98091.44;10508536;28;20040;-71
2021/01/21 20:37:29;;;;;;;3.75;1.60;;;;;;;7.20;100.00;98093.25;10503553;28;20481;-71
2021/01/21 20:42:30;;;;;;;4.35;1.35;;;;;;;7.49;100.00;98091.19;10510504;28;20399;-71
2021/01/21 20:47:32;;;;;;;2.13;1.20;;;;;;;7.30;100.00;98043.66;10542597;28;20044;-71
2021/01/21 20:52:36;;;;;;;3.83;1.45;;;;;;;6.95;100.00;97992.03;10545689;28;20403;-71
2021/01/21 20:57:37;;;;;;;6.03;1.60;;;;;;;6.83;100.00;97977.22;10510770;28;20036;-71
2021/01/21 21:02:38;;;;;;;4.47;1.75;;;;;;;7.01;100.00;97991.63;10512645;28;20059;-71
2021/01/21 21:07:40;;;;;;;5.55;1.90;;;;;;;7.00;100.00;97987.34;10543242;28;20051;-71
2021/01/21 21:12:42;;;;;;;2.65;1.15;;;;;;;7.53;100.00;98014.84;10544949;28;20050;-71
2021/01/21 21:17:46;;;;;;;1.65;1.15;;;;;;;7.98;100.00;98031.59;10527073;28;20400;-71
2021/01/21 21:22:47;;;;;;;2.05;1.10;;;;;;;8.30;100.00;98058.00;10512134;28;20097;-71
2021/01/21 21:27:49;;;;;;;3.00;1.73;;;;;;;8.59;100.00;98042.72;10511912;28;20048;-71
2021/01/21 21:32:50;;;;;;;4.47;1.98;;;;;;;8.67;100.00;98053.47;10527262;28;20411;-71
2021/01/21 21:37:51;;;;;;;3.47;1.52;;;;;;;8.83;100.00;98055.72;10502322;28;20056;-71
2021/01/21 21:42:52;;;;;;;1.75;1.00;;;;;;;8.93;100.00;98056.69;10500763;28;20045;-71
2021/01/21 21:47:54;;;;;;;8.00;5.65;;;;;;;8.93;100.00;98053.22;10537693;28;20048;-71
2021/01/21 21:52:55;;;;;;;5.70;3.25;;;;;;;8.78;100.00;98015.88;10542294;28;20043;-71
2021/01/21 21:57:56;;;;;;;3.35;2.00;;;;;;;8.94;100.00;98007.63;10524894;28;20578;-71
2021/01/21 22:02:57;;;;;;;2.67;1.13;;;;;;;9.06;100.00;98028.50;10537890;28;20043;-71
2021/01/21 22:07:59;;;;;;;5.32;1.77;;;;;;;9.15;100.00;98024.28;10540273;28;20055;-71
2021/01/21 22:13:01;;;;;;;3.53;2.70;;;;;;;9.27;100.00;98031.22;10540866;28;20048;-71
2021/01/21 22:18:02;;;;;;;4.72;3.22;;;;;;;9.36;100.00;98043.63;10518001;28;20049;-71
2021/01/21 22:23:03;;;;;;;3.78;1.20;;;;;;;9.64;100.00;98075.53;10530671;28;20483;-71
2021/01/21 22:28:04;;;;;;;4.03;1.90;;;;;;;9.58;100.00;98055.84;10539166;28;20044;-71
2021/01/21 22:33:06;;;;;;;4.60;2.20;;;;;;;9.77;100.00;98056.03;10499915;28;20044;-71
2021/01/21 22:38:07;;;;;;;5.15;2.63;;;;;;;9.72;100.00;98031.06;10499408;28;20057;-71
2021/01/21 22:43:10;;;;;;;4.68;2.10;;;;;;;10.01;100.00;98054.97;10508108;28;20044;-71
2021/01/21 22:48:12;;;;;;;4.30;2.25;;;;;;;10.01;100.00;98044.44;10540605;28;20490;-71
2021/01/21 22:53:13;;;;;;;3.88;1.88;;;;;;;9.81;100.00;98020.63;10541044;28;20149;-71
2021/01/21 22:58:15;;;;;;;6.78;2.50;;;;;;;9.72;100.00;97999.50;10533949;28;20064;-71
2021/01/21 23:03:16;;;;;;;3.95;2.22;;;;;;;9.62;100.00;97985.47;10533825;28;20428;-71
2021/01/21 23:08:17;;;;;;;4.60;2.22;;;;;;;9.54;100.00;97972.94;10540079;28;20062;-71
2021/01/21 23:13:19;;;;;;;5.45;1.80;;;;;;;9.73;100.00;97988.88;10527099;28;20131;-71
2021/01/21 23:18:20;;;;;;;4.60;1.35;;;;;;;9.57;100.00;97966.59;10522952;28;20046;-71
2021/01/21 23:23:21;;;;;;;6.07;2.10;;;;;;;9.50;100.00;97951.34;10505137;28;20049;-71
2021/01/21 23:28:24;;;;;;;6.40;2.40;;;;;;;9.29;100.00;97929.44;10495908;28;20044;-71
2021/01/21 23:33:25;;;;;;;3.83;1.58;;;;;;;9.30;100.00;97932.91;10496536;28;20045;-71
2021/01/21 23:38:26;;;;;;;4.03;1.60;;;;;;;9.30;100.00;97932.91;10496280;28;20055;-71
2021/01/21 23:43:27;;;;;;;2.78;1.30;;;;;;;9.49;100.00;97960.19;10479592;28;20048;-71
2021/01/21 23:48:28;;;;;;;2.60;1.30;;;;;;;9.37;100.00;97934.91;10523162;28;20040;-71
2021/01/21 23:53:29;;;;;;;3.80;1.40;;;;;;;9.54;100.00;97943.22;10534386;28;20047;-71
2021/01/21 23:58:31;;;;;;;4.10;1.15;;;;;;;9.55;100.00;97924.66;10520648;28;20131;-71
